Hoxie, Kansas
Current Conditions -  °F | °C
As of 11:53 AM on Wednesday 28 Jan 2015 (Local Time) from KHLC Reporting Station
Clear Clear  
Wind Chill: 65°   Ceiling: Unl
Heat Index: 65°   Visibility: 10mi
Dew Point: 31°   Wind: 28mph
Humidity: 28%   Direction: 320°NW
Pressure: 29.86"   Gusts: 37mph
Location:  39.36°N, 100.44°W
Report Text: KHLC 281753Z AUTO 32024G32KT 10SM CLR 18/M01 A2986 RMK AO2 PK WND 31032/1753 SLP107 T01831006 10183 20006 58003
Loading
Personal Weather Stations






























Interactive Weather Map New forecast layout! Learn more

10-Day Weather Forecast

Advertisements
Track Severe Weather on mobile